カリーニングラード の空港の天気 - METARとTAF

フラブロヴォ空港 ( UMKK / KGD ) - ロシア カリーニングラード
飛行場実況気象(Metar)
観測時間12/06 22:30 EET (12/06 20:30 UTC)
風向・風速南西 7m/s
視程7000m
天気現象
全天を覆う雲 雲底高度 300m
気温3℃
湿度93%
気圧1003hPa
METARUMKK 062030Z 22007MPS 7000 OVC010 03/02 Q1003 R24/290095 NOSIG RMK QFE751/1001
過去の天気等 Google飛行場航空写真 Wunderground天気予報

過去48時間のMETAR

飛行場予報(TAF)
発表時間: 12/06 21:56 EET (12/06 19:56 UTC)
予報対象時間: 6日23時 EET ~ 7日23時 EET
風向・風速南南西 8m/s 瞬間風速 13m/s
視程3500m
天気現象弱い雨霧雨 もや
全天の8割程度の雲 雲底高度 180m
全天を覆う雲 雲底高度 340m
6日23時 EET ~ 7日17時 EET に一時的に
風向・風速西南西 11m/s
視程1700m
天気現象しゅう雨 もや
全天の8割程度の雲 雲底高度 90m
全天の8割程度の積乱雲 雲底高度 400m
7日17時 EET から
風向・風速西 10m/s 瞬間風速 18m/s
視程10km以上
全天の4割程度の雲 雲底高度 340m
全天の8割程度の積乱雲 雲底高度 610m
7日17時 EET ~ 7日23時 EET に一時的に
風向・風速西 13m/s 瞬間風速 20m/s
視程4000m
天気現象弱いしゅう雨あられ
全天の8割程度の積乱雲 雲底高度 340m
TAF UMKK 061956Z 0621/0721 21008G13MPS 3500 -RADZ BR BKN006 OVC011
TEMPO 0621/0715 24011MPS 1700 SHRA BR BKN003 BKN013CB
FM071500 26010G18MPS 9999 SCT011 BKN020CB
TEMPO 0715/0721 28013G20MPS 4000 -SHRAGS BKN011CB